Time;durP1;ratioP1;P1;durP2;ratioP2;P2;SDS_P1;SDS_P2;PMS_P1;PMS_P2;Temp;Humidity;BMP_temperature;BMP_pressure;BME280_temperature;BME280_humidity;BME280_pressure;Samples;Min_cycle;Max_cycle;Signal;HPM_P1;HPM_P2
2022/05/02 00:01:39;;;;;;;20.87;18.40;;;;;;;12.75;62.58;99381.75;4097164;28;20550;-38
2022/05/02 00:03:40;;;;;;;21.53;19.23;;;;;;;12.60;63.29;99389.72;4098005;28;20715;-37
2022/05/02 00:05:43;;;;;;;22.47;19.23;;;;;;;12.20;63.60;99407.72;4108615;28;20950;-41
2022/05/02 00:07:45;;;;;;;19.80;17.83;;;;;;;11.91;65.06;99417.22;4091522;28;20241;-33
2022/05/02 00:09:47;;;;;;;21.37;17.63;;;;;;;12.03;64.83;99418.50;4097713;28;20284;-35
2022/05/02 00:11:49;;;;;;;20.37;17.87;;;;;;;14.03;58.87;99219.31;4099160;28;20665;-40
2022/05/02 00:13:51;;;;;;;19.57;17.47;;;;;;;12.33;63.08;99380.47;4105574;28;20243;-39
2022/05/02 00:15:52;;;;;;;20.00;17.40;;;;;;;13.48;59.67;99296.47;4108430;28;20304;-38
2022/05/02 00:17:57;;;;;;;19.30;17.00;;;;;;;12.24;62.93;99385.03;4110521;28;20289;-41
2022/05/02 00:19:59;;;;;;;19.23;16.67;;;;;;;12.81;61.36;99344.50;4106223;28;20249;-38
2022/05/02 00:22:01;;;;;;;18.70;16.70;;;;;;;12.13;63.83;99394.25;4104616;28;20234;-36
2022/05/02 00:24:03;;;;;;;22.87;16.77;;;;;;;12.35;63.81;99383.78;4106514;28;20263;-41
2022/05/02 00:26:05;;;;;;;19.03;16.93;;;;;;;11.64;65.56;99394.56;4095196;28;20267;-41
2022/05/02 00:28:14;;;;;;;18.63;16.60;;;;;;;12.03;64.32;99394.53;4091445;28;20238;-38
2022/05/02 00:30:16;;;;;;;17.73;15.83;;;;;;;12.29;63.05;99372.00;4093476;28;20242;-36
2022/05/02 00:32:18;;;;;;;19.03;17.00;;;;;;;12.62;62.48;99347.69;4109079;28;20282;-37
2022/05/02 00:34:19;;;;;;;19.67;15.93;;;;;;;12.94;61.32;99319.84;4109346;28;20242;-42
2022/05/02 00:36:21;;;;;;;18.73;16.73;;;;;;;12.30;62.52;99349.66;4114876;28;20665;-40
2022/05/02 00:38:23;;;;;;;18.10;16.20;;;;;;;12.35;61.94;99365.94;4108911;28;20288;-39
2022/05/02 00:40:25;;;;;;;17.27;15.47;;;;;;;13.42;59.95;99255.34;4107264;28;20234;-37
2022/05/02 00:42:27;;;;;;;17.23;15.43;;;;;;;12.19;63.66;99382.09;4108013;28;20322;-41
2022/05/02 00:44:28;;;;;;;17.03;15.27;;;;;;;11.35;66.08;99388.84;4115961;28;20247;-39
2022/05/02 00:46:30;;;;;;;18.47;15.60;;;;;;;11.84;64.54;99400.28;4110574;28;20325;-41
2022/05/02 00:48:32;;;;;;;20.00;16.73;;;;;;;12.31;62.47;99343.31;4116242;28;20293;-38
2022/05/02 00:50:36;;;;;;;19.10;16.73;;;;;;;13.29;60.52;99244.50;4104722;28;20235;-38
2022/05/02 00:52:38;;;;;;;18.57;16.67;;;;;;;12.81;61.50;99303.66;4088524;28;20662;-41
2022/05/02 00:54:42;;;;;;;22.60;17.03;;;;;;;12.70;61.81;99331.59;4094691;28;20290;-38
2022/05/02 00:56:44;;;;;;;18.10;16.20;;;;;;;12.77;61.65;99321.84;4092724;28;20250;-37
2022/05/02 00:58:47;;;;;;;19.57;17.57;;;;;;;13.88;58.20;99188.16;4099171;28;20709;-40
2022/05/02 01:00:48;;;;;;;20.20;18.03;;;;;;;13.74;58.89;99215.78;4103257;28;20235;-40
2022/05/02 01:02:50;;;;;;;21.67;17.07;;;;;;;13.32;59.80;99266.31;4115258;28;20238;-39
2022/05/02 01:04:52;;;;;;;19.40;16.60;;;;;;;13.11;60.64;99291.16;4110928;28;20245;-40
2022/05/02 01:07:09;;;;;;;19.53;16.73;;;;;;;12.45;61.58;99337.22;4113190;28;20312;-40
2022/05/02 01:09:10;;;;;;;17.97;16.07;;;;;;;12.44;61.97;99359.53;4109856;28;20672;-36
2022/05/02 01:11:12;;;;;;;18.27;16.30;;;;;;;13.37;59.35;99241.72;4110182;28;20234;-42
2022/05/02 01:13:50;;;;;;;18.00;16.23;;;;;;;12.97;60.59;99292.78;4096367;28;20716;-37
2022/05/02 01:15:51;;;;;;;19.53;17.43;;;;;;;13.40;59.31;99242.16;4115097;28;20222;-39
2022/05/02 01:17:53;;;;;;;19.30;17.30;;;;;;;13.08;60.02;99288.00;4109174;28;20315;-39
2022/05/02 01:19:55;;;;;;;19.87;16.00;;;;;;;12.89;61.00;99319.56;4114184;28;20300;-38
2022/05/02 01:21:57;;;;;;;19.27;16.33;;;;;;;13.34;59.62;99252.78;4113790;28;20231;-42
2022/05/02 01:24:01;;;;;;;19.00;16.80;;;;;;;13.46;59.26;99232.56;4111813;28;20241;-43
2022/05/02 01:26:03;;;;;;;20.50;16.17;;;;;;;13.51;59.07;99230.16;4111641;28;20235;-40
2022/05/02 01:28:06;;;;;;;20.27;17.70;;;;;;;13.47;58.87;99236.91;4109307;28;20277;-38
2022/05/02 01:30:09;;;;;;;20.30;17.90;;;;;;;13.27;59.38;99270.59;4092360;28;20235;-38
2022/05/02 01:32:13;;;;;;;18.90;17.00;;;;;;;13.04;59.63;99295.56;4093928;28;20649;-36
2022/05/02 01:34:15;;;;;;;20.13;18.07;;;;;;;13.30;59.18;99260.34;4095336;28;20245;-40
2022/05/02 01:36:18;;;;;;;23.20;19.80;;;;;;;13.09;59.68;99290.47;4096886;28;20227;-41
2022/05/02 01:38:20;;;;;;;22.73;19.70;;;;;;;12.77;60.78;99326.38;4110733;28;20661;-40
2022/05/02 01:40:21;;;;;;;20.60;18.40;;;;;;;12.52;61.27;99329.28;4099751;28;20238;-38
2022/05/02 01:42:23;;;;;;;21.70;18.40;;;;;;;12.47;61.99;99339.66;4101098;28;20288;-42
2022/05/02 01:44:25;;;;;;;20.40;18.07;;;;;;;12.45;62.23;99342.53;4104171;28;20245;-42
2022/05/02 01:46:26;;;;;;;20.93;18.67;;;;;;;12.21;63.02;99361.41;4112116;28;20308;-37
2022/05/02 01:48:28;;;;;;;21.03;18.60;;;;;;;11.91;63.60;99366.63;4113844;28;20234;-38
2022/05/02 01:50:30;;;;;;;22.83;18.53;;;;;;;11.78;63.53;99361.00;4111178;28;20262;-41
2022/05/02 01:52:32;;;;;;;22.60;18.70;;;;;;;12.21;62.47;99342.75;4108174;28;20230;-41
2022/05/02 01:54:33;;;;;;;21.10;18.30;;;;;;;12.00;63.38;99351.38;4108218;28;20283;-41
2022/05/02 01:56:35;;;;;;;20.73;17.27;;;;;;;11.37;65.61;99391.34;4094367;28;20308;-36
2022/05/02 01:58:37;;;;;;;21.33;18.37;;;;;;;12.13;63.62;99324.16;4092686;28;20247;-36
2022/05/02 02:00:39;;;;;;;21.33;17.47;;;;;;;12.13;63.43;99327.63;4090875;28;20245;-41
2022/05/02 02:02:41;;;;;;;19.30;17.23;;;;;;;11.47;64.10;99357.34;4084018;28;20284;-39
2022/05/02 02:07:04;;;;;;;18.10;16.13;;;;;;;11.08;65.98;99374.16;4090515;28;20290;-40
2022/05/02 02:09:05;;;;;;;19.37;16.70;;;;;;;11.91;63.35;99324.00;4091550;28;20294;-36
2022/05/02 02:11:09;;;;;;;19.53;17.10;;;;;;;12.76;60.91;99234.84;4093919;28;20270;-40
2022/05/02 02:13:12;;;;;;;19.20;16.80;;;;;;;12.75;60.44;99237.69;4093145;28;20247;-42
2022/05/02 02:15:14;;;;;;;20.90;18.00;;;;;;;12.56;60.99;99268.44;4083277;28;20724;-41
2022/05/02 02:17:16;;;;;;;21.33;18.03;;;;;;;12.76;60.88;99242.84;4086051;28;20229;-38
2022/05/02 02:19:17;;;;;;;24.00;17.70;;;;;;;12.11;61.45;99311.81;4091284;28;20794;-41
2022/05/02 02:21:19;;;;;;;20.03;17.23;;;;;;;12.40;61.25;99283.56;4103029;28;20286;-39
2022/05/02 02:23:23;;;;;;;21.03;17.33;;;;;;;12.41;61.76;99295.91;4107918;28;20766;-41
2022/05/02 02:25:25;;;;;;;18.90;16.90;;;;;;;12.99;60.00;99223.22;4114029;28;20238;-40
2022/05/02 02:27:27;;;;;;;18.70;16.70;;;;;;;12.08;62.92;99320.22;4109808;28;20779;-40
2022/05/02 02:29:29;;;;;;;19.60;16.83;;;;;;;12.00;62.34;99314.09;4104668;28;20243;-42
2022/05/02 02:31:31;;;;;;;21.30;17.23;;;;;;;13.03;59.79;99220.00;4106780;28;20242;-41
2022/05/02 02:33:33;;;;;;;20.80;17.17;;;;;;;13.12;59.29;99201.22;4113784;28;20230;-41
2022/05/02 02:35:35;;;;;;;21.00;18.80;;;;;;;12.79;59.74;99249.63;4111992;28;20284;-36
2022/05/02 02:37:36;;;;;;;25.07;21.87;;;;;;;13.18;58.88;99211.09;4104307;28;20824;-37
2022/05/02 02:39:38;;;;;;;30.20;23.63;;;;;;;13.07;58.88;99222.31;4102423;28;20264;-35
2022/05/02 02:41:40;;;;;;;26.77;23.30;;;;;;;12.69;60.07;99276.63;4112443;28;20229;-39
2022/05/02 02:43:41;;;;;;;24.33;21.77;;;;;;;12.79;59.28;99255.81;4101703;28;20241;-39
2022/05/02 02:45:43;;;;;;;23.87;20.33;;;;;;;12.87;58.97;99246.91;4113785;28;20267;-42
2022/05/02 02:47:45;;;;;;;22.30;19.93;;;;;;;12.64;60.01;99277.16;4107006;28;20246;-40
2022/05/02 02:49:47;;;;;;;24.83;21.93;;;;;;;12.53;59.81;99271.47;4113441;28;20298;-39
2022/05/02 02:51:48;;;;;;;25.10;22.40;;;;;;;12.64;59.98;99269.16;4114540;28;20234;-41
2022/05/02 02:53:51;;;;;;;27.93;24.67;;;;;;;12.57;59.85;99286.06;4105583;28;20242;-40
2022/05/02 02:55:53;;;;;;;26.80;23.97;;;;;;;12.26;60.62;99314.53;4115085;28;20237;-38
2022/05/02 02:57:55;;;;;;;23.97;21.50;;;;;;;12.61;59.88;99266.84;4117118;28;20238;-41
2022/05/02 02:59:57;;;;;;;22.13;19.63;;;;;;;12.71;59.55;99247.91;4110692;28;20246;-39
2022/05/02 03:01:58;;;;;;;20.53;17.80;;;;;;;12.84;59.29;99234.75;4106848;28;20234;-41
2022/05/02 03:06:01;;;;;;;20.40;18.00;;;;;;;12.29;60.61;99297.38;4092913;28;20246;-42
2022/05/02 03:06:22;;;;;;;19.90;17.60;;;;;;;12.25;61.04;99307.56;4107820;28;20464;-42
2022/05/02 03:08:24;;;;;;;22.30;17.93;;;;;;;12.48;60.60;99272.81;4104103;28;20242;-40
2022/05/02 03:10:27;;;;;;;21.13;18.27;;;;;;;12.18;61.42;99305.78;4101674;28;20243;-41
2022/05/02 03:12:29;;;;;;;20.50;17.77;;;;;;;11.59;63.69;99347.13;4112117;28;20269;-43
2022/05/02 03:14:30;;;;;;;21.10;17.30;;;;;;;11.90;62.97;99311.69;4110225;28;20312;-40
2022/05/02 03:16:32;;;;;;;22.87;18.67;;;;;;;10.94;65.34;99364.25;4113175;28;20302;-39
2022/05/02 03:18:34;;;;;;;20.17;17.60;;;;;;;11.04;65.21;99359.56;4110085;28;20230;-38
2022/05/02 03:20:36;;;;;;;20.90;17.00;;;;;;;11.63;63.58;99302.34;4100278;28;20639;-37
2022/05/02 03:22:38;;;;;;;19.93;16.97;;;;;;;11.57;63.17;99309.22;4112720;28;20231;-38
2022/05/02 03:24:40;;;;;;;21.27;17.60;;;;;;;11.26;65.09;99359.81;4100514;28;20235;-40
2022/05/02 03:26:41;;;;;;;20.37;16.87;;;;;;;12.17;61.84;99242.81;4104244;28;20296;-40
2022/05/02 03:28:43;;;;;;;21.07;18.03;;;;;;;12.33;61.31;99224.00;4108202;28;20691;-42
2022/05/02 03:30:45;;;;;;;20.37;15.90;;;;;;;10.83;65.21;99344.13;4114035;28;21411;-37
2022/05/02 03:32:47;;;;;;;19.00;17.00;;;;;;;11.88;62.75;99281.72;4105467;28;20244;-41
2022/05/02 03:34:48;;;;;;;18.90;16.57;;;;;;;11.22;65.12;99359.28;4101906;28;20665;-37
2022/05/02 03:36:51;;;;;;;19.50;15.10;;;;;;;10.24;67.46;99355.00;4109825;28;20723;-39
2022/05/02 03:38:53;;;;;;;17.57;15.07;;;;;;;10.71;66.64;99364.09;4115215;28;20238;-39
2022/05/02 03:40:54;;;;;;;17.07;14.17;;;;;;;10.84;65.74;99353.78;4110149;28;20239;-42
2022/05/02 03:42:56;;;;;;;18.30;15.30;;;;;;;9.92;68.23;99356.63;4106698;28;20241;-37
2022/05/02 03:44:58;;;;;;;18.37;14.20;;;;;;;10.30;67.47;99364.16;4102450;28;20251;-40
2022/05/02 03:46:59;;;;;;;15.50;13.30;;;;;;;11.16;65.17;99307.59;4091157;28;20232;-41
2022/05/02 03:49:01;;;;;;;17.90;14.67;;;;;;;11.79;62.59;99234.81;4095249;28;20242;-42
2022/05/02 03:51:03;;;;;;;15.63;14.00;;;;;;;11.47;63.79;99285.47;4094691;28;20238;-39
2022/05/02 03:53:05;;;;;;;18.30;15.20;;;;;;;12.67;60.28;99166.59;4094932;28;20243;-38
2022/05/02 03:55:07;;;;;;;18.30;15.47;;;;;;;12.49;60.24;99167.00;4092916;28;20315;-42
2022/05/02 03:57:09;;;;;;;17.20;15.40;;;;;;;11.90;61.96;99267.22;4090545;28;20295;-42
2022/05/02 03:59:11;;;;;;;19.20;15.57;;;;;;;12.20;61.18;99219.31;4091169;28;20295;-40
2022/05/02 04:01:12;;;;;;;18.37;15.57;;;;;;;12.07;61.57;99254.56;4094869;28;20247;-41
2022/05/02 04:03:15;;;;;;;17.13;14.60;;;;;;;10.46;65.82;99369.44;4110052;28;20266;-41
2022/05/02 04:05:17;;;;;;;16.60;14.33;;;;;;;11.29;63.82;99323.03;4113189;28;20246;-41
2022/05/02 04:07:18;;;;;;;15.43;13.87;;;;;;;11.73;62.30;99271.81;4109246;28;20234;-41
2022/05/02 04:09:20;;;;;;;17.83;14.53;;;;;;;11.77;62.56;99264.28;4112266;28;20235;-42
2022/05/02 04:11:22;;;;;;;18.27;15.10;;;;;;;10.65;65.29;99367.41;4112914;28;20321;-38
2022/05/02 04:13:23;;;;;;;21.03;15.50;;;;;;;10.96;65.50;99362.22;4112781;28;20234;-38
2022/05/02 04:15:25;;;;;;;15.40;13.60;;;;;;;10.89;64.42;99353.28;4109370;28;20297;-38
2022/05/02 04:17:27;;;;;;;17.00;14.03;;;;;;;10.55;65.79;99383.53;4111572;28;20445;-40
2022/05/02 04:19:28;;;;;;;15.93;13.53;;;;;;;11.20;64.39;99308.09;4114803;28;20282;-41
2022/05/02 04:21:30;;;;;;;15.53;13.27;;;;;;;11.75;61.97;99242.34;4112852;28;20344;-40
2022/05/02 04:23:33;;;;;;;15.70;14.10;;;;;;;11.14;63.90;99335.41;4114987;28;20244;-40
2022/05/02 04:25:35;;;;;;;15.80;14.13;;;;;;;11.27;63.57;99318.88;4105588;28;20230;-40
2022/05/02 04:27:37;;;;;;;18.33;14.07;;;;;;;11.98;61.38;99218.34;4112263;28;20233;-40
2022/05/02 04:29:38;;;;;;;16.93;14.20;;;;;;;11.72;62.08;99256.84;4103801;28;20234;-40
2022/05/02 04:31:40;;;;;;;18.07;14.47;;;;;;;11.76;62.00;99254.63;4096008;28;20231;-41
2022/05/02 04:33:42;;;;;;;16.73;14.77;;;;;;;11.21;62.15;99303.59;4086404;28;20326;-40
2022/05/02 04:35:43;;;;;;;16.07;14.00;;;;;;;11.43;63.34;99309.97;4090902;28;20295;-40
2022/05/02 04:37:45;;;;;;;16.37;14.50;;;;;;;11.55;62.61;99289.94;4093997;28;20286;-41
2022/05/02 04:39:47;;;;;;;18.27;15.00;;;;;;;11.36;63.42;99323.97;4093398;28;20239;-40
2022/05/02 04:41:49;;;;;;;16.07;13.97;;;;;;;10.98;64.15;99357.56;4097096;28;20238;-40
2022/05/02 04:43:52;;;;;;;16.63;14.43;;;;;;;11.70;62.40;99264.19;4099258;28;20302;-42
2022/05/02 04:45:54;;;;;;;16.37;14.60;;;;;;;11.76;62.30;99264.47;4105726;28;20246;-42
2022/05/02 04:47:57;;;;;;;16.93;14.83;;;;;;;11.49;62.78;99303.94;4101522;28;20240;-37
2022/05/02 04:49:58;;;;;;;16.73;15.03;;;;;;;11.61;62.65;99291.03;4095745;28;20234;-38
2022/05/02 04:52:00;;;;;;;19.43;15.40;;;;;;;11.90;62.00;99250.41;4094527;28;20689;-38
2022/05/02 04:54:02;;;;;;;17.13;14.60;;;;;;;11.73;62.48;99271.81;4108188;28;20245;-40
2022/05/02 04:56:04;;;;;;;16.60;14.37;;;;;;;11.74;62.28;99267.31;4111181;28;20664;-40
2022/05/02 04:58:06;;;;;;;16.03;14.33;;;;;;;11.73;62.65;99268.34;4114425;28;20978;-41
2022/05/02 05:00:08;;;;;;;17.10;15.17;;;;;;;11.39;63.83;99320.13;4108496;28;20241;-37
2022/05/02 05:02:10;;;;;;;18.53;15.30;;;;;;;11.21;64.28;99341.69;4111936;28;20269;-34
2022/05/02 05:04:12;;;;;;;18.00;14.67;;;;;;;11.01;65.38;99367.88;4109473;28;20632;-39
2022/05/02 05:06:14;;;;;;;16.60;13.53;;;;;;;11.29;64.41;99314.19;4107979;28;20237;-40
2022/05/02 05:08:16;;;;;;;22.47;15.50;;;;;;;11.12;64.92;99335.56;4113992;28;20238;-41
2022/05/02 05:10:23;;;;;;;18.37;13.60;;;;;;;11.43;64.64;99300.16;4101959;28;20259;-41
2022/05/02 05:12:27;;;;;;;18.13;14.07;;;;;;;11.96;63.08;99225.69;4107313;28;20231;-40
2022/05/02 05:17:41;;;;;;;18.43;13.90;;;;;;;11.86;63.40;99247.25;4104233;28;20227;-42
2022/05/02 05:20:13;;;;;;;16.73;14.00;;;;;;;11.55;64.88;99292.59;4102389;28;20269;-38
2022/05/02 05:22:23;;;;;;;16.07;13.83;;;;;;;11.55;64.03;99279.28;4109352;28;20254;-38
2022/05/02 05:24:43;;;;;;;17.77;13.53;;;;;;;11.72;64.04;99256.84;4108127;28;20242;-39
2022/05/02 05:26:54;;;;;;;15.30;13.30;;;;;;;11.86;63.73;99238.44;4108469;28;20231;-36
2022/05/02 05:28:59;;;;;;;17.17;14.27;;;;;;;11.79;64.25;99251.63;4105388;28;20722;-41
2022/05/02 05:31:19;;;;;;;15.47;13.63;;;;;;;11.85;63.89;99231.47;4107247;28;20234;-37
2022/05/02 05:33:45;;;;;;;18.03;13.80;;;;;;;11.97;63.18;99206.06;4108796;28;20267;-40
2022/05/02 05:36:19;;;;;;;16.33;13.57;;;;;;;12.50;62.65;99167.81;4093150;28;20838;-40
2022/05/02 05:38:38;;;;;;;18.50;13.03;;;;;;;11.50;65.72;99303.75;4089959;28;20246;-41
2022/05/02 05:40:44;;;;;;;15.63;12.73;;;;;;;12.39;63.19;99185.94;4098386;28;20657;-38
2022/05/02 05:43:01;;;;;;;15.53;13.17;;;;;;;12.80;62.26;99164.06;4108946;28;20304;-40
2022/05/02 05:45:03;;;;;;;15.30;13.70;;;;;;;12.83;62.46;99145.03;4110533;28;20249;-38
2022/05/02 05:47:05;;;;;;;13.73;12.23;;;;;;;11.65;66.58;99289.69;4109451;28;20279;-40
2022/05/02 05:49:16;;;;;;;17.10;13.77;;;;;;;12.15;64.63;99199.53;4110012;28;20247;-39
2022/05/02 05:51:43;;;;;;;17.53;13.40;;;;;;;11.46;66.48;99275.00;4111780;28;20242;-37
2022/05/02 05:54:02;;;;;;;17.63;12.53;;;;;;;10.91;70.81;99344.13;4104244;28;20299;-39
2022/05/02 05:56:29;;;;;;;14.43;12.53;;;;;;;11.47;69.00;99271.34;4102625;28;20231;-39
2022/05/02 05:58:45;;;;;;;15.50;13.37;;;;;;;12.07;67.00;99193.28;4090966;28;20239;-37
2022/05/02 06:00:52;;;;;;;14.77;12.83;;;;;;;12.28;66.06;99149.09;4092068;28;20613;-40
2022/05/02 06:03:12;;;;;;;14.67;12.97;;;;;;;12.89;64.91;99119.47;4091457;28;20240;-39
2022/05/02 06:05:15;;;;;;;16.80;12.40;;;;;;;12.89;64.19;99098.13;4090166;28;20270;-39
2022/05/02 06:07:21;;;;;;;14.10;12.47;;;;;;;13.56;63.02;99058.63;4089147;28;20249;-42
2022/05/02 06:09:25;;;;;;;18.00;12.80;;;;;;;12.90;65.38;99105.13;4090823;28;20246;-37
2022/05/02 06:11:27;;;;;;;15.47;13.10;;;;;;;12.91;64.02;99096.09;4090523;28;20267;-40
2022/05/02 06:13:32;;;;;;;15.87;13.60;;;;;;;13.08;64.04;99085.16;4091259;28;20268;-39
2022/05/02 06:18:27;;;;;;;14.83;13.00;;;;;;;13.10;63.63;99072.47;4110076;28;20257;-36
2022/05/02 06:20:33;;;;;;;15.70;13.03;;;;;;;12.95;64.68;99100.03;4111155;28;20330;-38
2022/05/02 06:22:37;;;;;;;15.70;13.87;;;;;;;13.12;63.96;99075.75;4109498;28;20285;-40
2022/05/02 06:24:44;;;;;;;17.63;14.27;;;;;;;13.12;65.73;99089.91;4109461;28;20235;-37
2022/05/02 06:26:48;;;;;;;17.40;13.63;;;;;;;13.21;64.93;99071.91;4103870;28;20235;-36
2022/05/02 06:28:51;;;;;;;16.53;14.17;;;;;;;13.51;63.62;99037.03;4107627;28;20696;-34
2022/05/02 06:30:56;;;;;;;15.70;13.50;;;;;;;13.54;63.45;99040.13;4108076;28;20235;-41
2022/05/02 06:33:05;;;;;;;16.17;13.43;;;;;;;13.42;64.02;99065.72;4108972;28;20317;-37
2022/05/02 06:35:07;;;;;;;16.73;13.20;;;;;;;13.87;62.71;99022.66;4098038;28;20246;-38
2022/05/02 06:37:25;;;;;;;15.40;13.87;;;;;;;13.30;64.48;99093.97;4088088;28;20939;-39
2022/05/02 06:39:57;;;;;;;16.77;13.80;;;;;;;13.81;62.98;99028.78;4091463;28;20234;-41
2022/05/02 06:42:20;;;;;;;15.33;13.73;;;;;;;13.33;64.80;99099.78;4108679;28;20244;-37
2022/05/02 06:44:31;;;;;;;18.07;13.77;;;;;;;13.63;64.79;99054.16;4107529;28;20230;-37
2022/05/02 06:46:44;;;;;;;14.97;13.10;;;;;;;13.36;64.90;99072.66;4112788;28;20233;-38
2022/05/02 06:48:50;;;;;;;17.60;13.87;;;;;;;14.49;61.57;98989.53;4108997;28;20238;-39
2022/05/02 06:51:20;;;;;;;17.50;13.97;;;;;;;13.70;64.31;99062.19;4110475;28;20234;-39
2022/05/02 06:53:34;;;;;;;15.33;13.67;;;;;;;14.46;62.39;98987.28;4108318;28;20281;-40
2022/05/02 06:55:48;;;;;;;16.03;14.33;;;;;;;13.36;65.13;99101.22;4095071;28;20791;-37
2022/05/02 06:58:12;;;;;;;15.13;13.13;;;;;;;13.77;62.97;99023.00;4111999;28;20238;-42
2022/05/02 07:00:18;;;;;;;16.53;13.40;;;;;;;14.49;61.73;98994.88;4108344;28;20727;-38
2022/05/02 07:02:42;;;;;;;14.57;12.97;;;;;;;13.82;63.83;99038.44;4109233;28;20303;-42
2022/05/02 07:04:52;;;;;;;15.27;13.33;;;;;;;14.78;60.72;98959.97;4107785;28;20234;-39
2022/05/02 07:07:12;;;;;;;14.37;12.83;;;;;;;14.13;63.36;99011.28;4112232;28;20233;-37
2022/05/02 07:09:22;;;;;;;13.67;12.27;;;;;;;14.48;61.80;98981.75;4108845;28;20238;-36
2022/05/02 07:11:53;;;;;;;14.00;12.60;;;;;;;14.25;62.60;99024.88;4106205;28;20730;-40
2022/05/02 07:13:58;;;;;;;14.07;12.50;;;;;;;14.76;62.29;98972.72;4095402;28;21040;-37
2022/05/02 07:16:23;;;;;;;13.67;12.33;;;;;;;14.57;61.94;98979.69;4110556;28;20235;-37
2022/05/02 07:19:07;;;;;;;16.67;13.83;;;;;;;14.57;61.95;99007.25;4106441;28;20687;-35
2022/05/02 07:21:09;;;;;;;14.87;13.30;;;;;;;14.18;62.68;99045.44;4099193;28;20956;-39
2022/05/02 07:23:11;;;;;;;15.23;13.67;;;;;;;14.46;62.52;99006.03;4111387;28;20238;-39
2022/05/02 07:25:14;;;;;;;14.60;13.00;;;;;;;13.99;63.28;99046.97;4114128;28;20235;-39
2022/05/02 07:27:48;;;;;;;14.87;13.37;;;;;;;13.05;66.18;99145.09;4096592;28;20735;-38
2022/05/02 07:29:50;;;;;;;15.57;12.70;;;;;;;14.28;63.48;99019.13;4094041;28;20298;-40
2022/05/02 07:31:54;;;;;;;15.03;13.03;;;;;;;14.70;62.65;98993.91;4094736;28;20330;-40
2022/05/02 07:33:57;;;;;;;13.50;11.90;;;;;;;15.26;60.92;98931.09;4113673;28;20243;-39
2022/05/02 07:36:02;;;;;;;14.63;12.53;;;;;;;15.42;60.30;98920.94;4111600;28;20238;-39
2022/05/02 07:38:05;;;;;;;15.47;12.73;;;;;;;15.40;61.36;98931.88;4111804;28;20284;-36
2022/05/02 07:40:11;;;;;;;13.33;11.93;;;;;;;15.47;60.93;98926.47;4113847;28;20363;-37
2022/05/02 07:42:15;;;;;;;13.20;11.70;;;;;;;15.15;60.52;98944.28;4092636;28;20306;-37
2022/05/02 07:44:18;;;;;;;12.93;11.63;;;;;;;15.64;59.56;98908.09;4092885;28;20250;-39
2022/05/02 07:46:25;;;;;;;13.70;12.30;;;;;;;15.51;60.26;98919.69;4090918;28;20238;-41
2022/05/02 07:48:29;;;;;;;13.33;11.53;;;;;;;15.38;58.97;98931.25;4099028;28;20235;-41
2022/05/02 07:50:31;;;;;;;17.93;11.87;;;;;;;15.79;58.42;98919.41;4110355;28;20320;-37
2022/05/02 07:52:36;;;;;;;14.37;12.87;;;;;;;15.64;59.54;98929.53;4113027;28;20476;-34
2022/05/02 07:54:41;;;;;;;14.93;12.37;;;;;;;14.97;61.94;99006.53;4106365;28;20239;-43
2022/05/02 07:56:47;;;;;;;14.27;12.40;;;;;;;15.21;60.84;98965.69;4100620;28;20226;-37
2022/05/02 07:58:51;;;;;;;13.77;11.63;;;;;;;15.50;60.15;98938.66;4112463;28;20297;-40
2022/05/02 08:00:53;;;;;;;15.90;12.30;;;;;;;15.21;60.33;98955.00;4113957;28;20231;-36
2022/05/02 08:02:56;;;;;;;13.77;12.03;;;;;;;14.32;62.46;99037.22;4114805;28;20235;-40
2022/05/02 08:04:58;;;;;;;17.23;12.00;;;;;;;14.85;62.18;99020.50;4110728;28;20738;-39
2022/05/02 08:07:21;;;;;;;14.10;12.00;;;;;;;15.03;61.72;98977.03;4113625;28;20245;-39
2022/05/02 08:09:55;;;;;;;14.73;13.27;;;;;;;15.22;61.11;98958.47;4112074;28;20234;-39
2022/05/02 08:12:12;;;;;;;14.37;11.87;;;;;;;14.79;62.13;99015.97;4107759;28;20748;-38
2022/05/02 08:14:17;;;;;;;13.63;11.77;;;;;;;15.18;60.69;98952.72;4111132;28;20242;-34
2022/05/02 08:16:29;;;;;;;13.50;12.10;;;;;;;15.26;61.34;98973.13;4114730;28;20620;-39
2022/05/02 08:18:50;;;;;;;13.60;12.03;;;;;;;15.42;61.04;98955.75;4119433;28;20265;-38
2022/05/02 08:21:02;;;;;;;13.87;12.23;;;;;;;15.70;59.72;98918.00;4109596;28;20234;-39
2022/05/02 08:28:49;;;;;;;13.70;11.67;;;;;;;15.94;60.13;98911.06;4110689;28;20660;-40
2022/05/02 08:30:58;;;;;;;14.00;11.67;;;;;;;16.31;58.75;98883.59;4110849;28;20885;-35
2022/05/02 08:33:05;;;;;;;14.87;12.73;;;;;;;15.95;59.55;98882.41;4109862;28;20238;-39
2022/05/02 08:35:41;;;;;;;14.17;12.40;;;;;;;16.05;59.23;98896.16;4111606;28;20671;-42
2022/05/02 08:37:55;;;;;;;14.93;12.13;;;;;;;16.35;59.30;98866.03;4112583;28;20508;-35
2022/05/02 08:40:16;;;;;;;14.13;11.80;;;;;;;15.84;59.87;98899.16;4098161;28;20289;-37
2022/05/02 08:42:39;;;;;;;16.87;12.53;;;;;;;16.63;58.76;98856.75;4088553;28;20242;-36
2022/05/02 08:45:03;;;;;;;15.60;12.07;;;;;;;16.67;59.49;98850.72;4095424;28;20236;-36
2022/05/02 08:47:23;;;;;;;14.43;12.50;;;;;;;16.65;58.69;98841.25;4107425;28;20238;-34
2022/05/02 08:49:52;;;;;;;13.60;12.20;;;;;;;15.07;61.50;99004.25;4099231;28;20231;-36
2022/05/02 08:52:27;;;;;;;16.60;12.57;;;;;;;16.27;59.19;98903.88;4111970;28;20231;-39
2022/05/02 08:54:50;;;;;;;17.27;13.10;;;;;;;16.65;57.61;98857.34;4111375;28;20238;-36
2022/05/02 08:57:17;;;;;;;17.00;12.60;;;;;;;16.32;58.84;98875.34;4117006;28;20253;-36
2022/05/02 08:59:40;;;;;;;14.37;12.00;;;;;;;16.49;60.11;98883.69;4113366;28;20839;-34
2022/05/02 09:02:20;;;;;;;16.13;13.07;;;;;;;16.33;58.94;98870.78;4111296;28;20645;-36
2022/05/02 09:04:58;;;;;;;16.07;12.67;;;;;;;16.62;58.04;98849.72;4077956;28;20242;-38
2022/05/02 09:07:21;;;;;;;13.47;11.60;;;;;;;16.74;57.32;98846.09;4099537;28;20226;-41
2022/05/02 09:09:46;;;;;;;14.50;12.93;;;;;;;16.98;57.31;98813.25;4093702;28;20240;-40
2022/05/02 09:12:31;;;;;;;13.97;12.57;;;;;;;15.80;58.65;98926.38;4110358;28;20234;-39
2022/05/02 09:15:05;;;;;;;14.87;12.83;;;;;;;16.44;60.18;98890.75;4116079;28;20261;-36
2022/05/02 09:17:12;;;;;;;13.80;12.40;;;;;;;15.78;60.07;98949.09;4113989;28;20238;-36
2022/05/02 09:19:53;;;;;;;14.17;12.70;;;;;;;16.55;58.77;98890.03;4107369;28;20231;-38
2022/05/02 09:22:28;;;;;;;14.10;12.60;;;;;;;16.52;58.98;98895.88;4113289;28;20971;-39
2022/05/02 09:24:32;;;;;;;15.83;12.13;;;;;;;15.69;60.37;98945.00;4097843;28;20292;-35
2022/05/02 09:26:52;;;;;;;16.67;12.30;;;;;;;16.55;58.79;98888.19;4111899;28;20234;-38
2022/05/02 09:29:03;;;;;;;13.00;11.53;;;;;;;15.63;60.93;98950.16;4112541;28;20234;-39
2022/05/02 09:31:11;;;;;;;14.07;12.57;;;;;;;16.88;57.60;98830.69;4107183;28;20603;-38
2022/05/02 09:33:29;;;;;;;13.77;12.03;;;;;;;16.78;57.16;98851.84;4114128;28;20242;-43
2022/05/02 09:35:40;;;;;;;13.80;12.40;;;;;;;17.24;57.10;98817.47;4108896;28;20653;-38
2022/05/02 09:37:57;;;;;;;15.30;12.37;;;;;;;16.91;57.97;98835.59;4113624;28;20731;-43
2022/05/02 09:40:04;;;;;;;12.90;11.33;;;;;;;16.06;58.54;98911.19;4112246;28;20304;-35
2022/05/02 09:42:17;;;;;;;15.23;12.13;;;;;;;16.25;58.67;98897.88;4096081;28;20231;-41
2022/05/02 09:50:48;;;;;;;12.37;10.90;;;;;;;16.57;58.90;98873.72;4098168;28;20655;-36
2022/05/02 09:53:16;;;;;;;13.57;10.70;;;;;;;17.12;57.43;98836.22;4109359;28;20261;-36
2022/05/02 09:58:30;;;;;;;14.57;11.37;;;;;;;16.42;59.56;98919.63;4081803;28;20235;-38
2022/05/02 10:01:06;;;;;;;13.07;11.63;;;;;;;17.48;56.87;98802.34;4115314;28;20299;-38
2022/05/02 10:03:33;;;;;;;13.57;11.30;;;;;;;17.25;57.22;98816.44;4099636;28;20230;-37
2022/05/02 10:05:49;;;;;;;12.17;10.87;;;;;;;16.68;57.45;98838.94;4111045;28;20237;-35
2022/05/02 10:08:38;;;;;;;13.47;12.17;;;;;;;17.55;57.27;98788.78;4107753;28;20318;-36
2022/05/02 10:10:56;;;;;;;13.43;10.77;;;;;;;17.48;57.25;98784.31;4078999;28;20284;-33
2022/05/02 10:13:31;;;;;;;11.60;10.30;;;;;;;16.86;57.39;98848.88;4109156;28;20291;-36